createdAt,value
2022-12-04T00:00:57.767Z,52.33
2022-12-04T00:01:59.541Z,52.65
2022-12-04T00:03:01.380Z,48.10
2022-12-04T00:04:03.202Z,60.70
2022-12-04T00:05:05.911Z,47.88
2022-12-04T00:06:11.194Z,57.25
2022-12-04T00:07:12.942Z,51.47
2022-12-04T00:08:14.789Z,57.47
2022-12-04T00:09:16.483Z,54.50
2022-12-04T00:10:18.266Z,63.78
2022-12-04T00:11:25.770Z,50.03
2022-12-04T00:12:27.872Z,57.55
2022-12-04T00:13:29.770Z,55.88
2022-12-04T00:14:31.620Z,57.55
2022-12-04T00:15:33.332Z,59.35
2022-12-04T00:16:35.419Z,53.45
2022-12-04T00:17:37.233Z,54.53
2022-12-04T00:18:39.436Z,50.55
2022-12-04T00:19:41.537Z,53.13
2022-12-04T00:20:43.266Z,53.47
2022-12-04T00:21:45.355Z,56.78
2022-12-04T00:22:47.154Z,51.80
2022-12-04T00:23:49.258Z,58.70
2022-12-04T00:24:51.004Z,53.42
2022-12-04T00:25:53.342Z,51.95
2022-12-04T00:26:55.128Z,51.35
2022-12-04T00:27:56.920Z,53.83
2022-12-04T00:28:59.123Z,55.13
2022-12-04T00:30:00.824Z,55.37
2022-12-04T00:31:07.240Z,54.40
2022-12-04T00:32:09.041Z,58.35
2022-12-04T00:33:12.135Z,46.92
2022-12-04T00:34:13.906Z,50.88
2022-12-04T00:35:15.690Z,58.67
2022-12-04T00:36:19.550Z,48.92
2022-12-04T00:37:21.259Z,48.97
2022-12-04T00:38:23.009Z,46.67
2022-12-04T00:39:24.746Z,56.42
2022-12-04T00:40:26.513Z,51.83
2022-12-04T00:41:30.240Z,53.25
2022-12-04T00:42:31.973Z,52.47
2022-12-04T00:43:33.997Z,49.88
2022-12-04T00:44:35.750Z,48.33
2022-12-04T00:45:37.503Z,55.03
2022-12-04T00:46:39.262Z,50.58
2022-12-04T00:47:41.183Z,60.72
2022-12-04T00:48:43.677Z,49.50
2022-12-04T00:49:45.477Z,53.97
2022-12-04T00:50:47.258Z,51.73
2022-12-04T00:51:48.998Z,50.72
2022-12-04T00:52:50.723Z,48.10
2022-12-04T00:53:52.819Z,45.78
2022-12-04T00:54:54.806Z,55.97
2022-12-04T00:55:56.859Z,51.33
2022-12-04T00:56:58.583Z,54.38
2022-12-04T00:58:00.430Z,54.67
2022-12-04T00:59:02.281Z,53.83
2022-12-04T01:00:05.971Z,51.78
2022-12-04T01:01:13.870Z,51.77
2022-12-04T01:02:15.673Z,50.58
2022-12-04T01:03:17.572Z,49.47
2022-12-04T01:04:19.401Z,51.95
2022-12-04T01:05:21.165Z,45.20
2022-12-04T01:06:26.314Z,52.05
2022-12-04T01:07:28.304Z,50.67
2022-12-04T01:08:30.277Z,49.40
2022-12-04T01:09:33.056Z,49.50
2022-12-04T01:10:35.205Z,53.22
2022-12-04T01:11:38.298Z,48.00
2022-12-04T01:12:40.022Z,48.88
2022-12-04T01:13:41.799Z,51.97
2022-12-04T01:14:43.612Z,51.47
2022-12-04T01:15:47.312Z,47.38
2022-12-04T01:16:49.165Z,51.22
2022-12-04T01:17:50.929Z,53.72
2022-12-04T01:18:52.911Z,62.13
2022-12-04T01:19:54.992Z,55.95
2022-12-04T01:20:56.971Z,54.95
2022-12-04T01:21:58.726Z,58.43
2022-12-04T01:23:00.444Z,58.10
2022-12-04T01:24:02.295Z,58.17
2022-12-04T01:25:04.371Z,53.53
2022-12-04T01:26:06.224Z,53.92
2022-12-04T01:27:08.036Z,54.08
2022-12-04T01:28:10.177Z,57.28
2022-12-04T01:29:11.999Z,54.72
2022-12-04T01:30:13.854Z,53.53
2022-12-04T01:31:18.891Z,57.88
2022-12-04T01:32:20.688Z,59.03
2022-12-04T01:33:22.396Z,54.28
2022-12-04T01:34:25.245Z,50.83
2022-12-04T01:35:26.997Z,55.72
2022-12-04T01:36:28.990Z,58.97
2022-12-04T01:37:31.859Z,58.75
2022-12-04T01:38:34.123Z,46.65
2022-12-04T01:39:36.769Z,54.63
2022-12-04T01:40:44.290Z,55.13
2022-12-04T01:41:46.184Z,61.22
2022-12-04T01:42:47.924Z,58.30
2022-12-04T01:44:11.360Z,56.22
2022-12-04T01:45:31.462Z,59.70
2022-12-04T01:46:33.337Z,53.83
2022-12-04T01:47:35.063Z,51.92
2022-12-04T01:48:43.345Z,58.47
2022-12-04T01:49:47.902Z,56.92
2022-12-04T01:50:53.478Z,56.17
2022-12-04T01:52:00.891Z,54.45
2022-12-04T01:53:02.698Z,55.38
2022-12-04T01:54:29.591Z,59.73
2022-12-04T01:55:31.822Z,53.22
2022-12-04T01:56:39.831Z,58.17
2022-12-04T01:57:42.639Z,59.28
2022-12-04T01:58:48.498Z,58.22
2022-12-04T01:59:57.422Z,54.63
2022-12-04T02:01:07.958Z,60.90
2022-12-04T02:02:14.495Z,50.03
2022-12-04T02:03:16.527Z,58.10
2022-12-04T02:04:18.401Z,58.17
2022-12-04T02:05:22.017Z,67.03
2022-12-04T02:06:23.772Z,56.05
2022-12-04T02:07:26.135Z,62.95
2022-12-04T02:08:29.342Z,68.25
2022-12-04T02:09:32.233Z,60.72
2022-12-04T02:11:29.507Z,62.45
2022-12-04T02:12:46.868Z,60.15
2022-12-04T02:13:58.710Z,56.25
2022-12-04T02:15:11.312Z,62.63
2022-12-04T02:16:19.624Z,54.35
2022-12-04T02:17:24.112Z,64.13
2022-12-04T02:18:45.977Z,60.83
2022-12-04T02:19:50.763Z,60.95
2022-12-04T02:21:16.307Z,51.80
2022-12-04T02:22:51.631Z,59.63
2022-12-04T02:24:14.928Z,58.47
2022-12-04T02:25:28.721Z,62.10
2022-12-04T02:26:58.805Z,62.13
2022-12-04T02:28:19.365Z,54.65
2022-12-04T02:29:29.970Z,57.70
2022-12-04T02:30:36.840Z,62.93
2022-12-04T02:31:50.937Z,57.70
2022-12-04T02:33:22.233Z,54.42
2022-12-04T02:34:49.140Z,60.78
2022-12-04T02:36:10.710Z,58.67
2022-12-04T02:37:21.814Z,55.95
2022-12-04T02:38:32.159Z,61.67
2022-12-04T02:39:44.392Z,62.67
2022-12-04T02:40:59.558Z,64.18
2022-12-04T02:42:32.321Z,59.05
2022-12-04T02:43:46.722Z,67.57
2022-12-04T02:44:53.819Z,56.97
2022-12-04T02:46:02.824Z,65.88
2022-12-04T02:47:14.136Z,58.22
2022-12-04T02:48:20.049Z,60.33
2022-12-04T02:49:28.903Z,67.13
2022-12-04T02:50:34.142Z,67.15
2022-12-04T02:51:39.453Z,64.55
2022-12-04T02:52:54.548Z,63.25
2022-12-04T02:54:05.759Z,59.00
2022-12-04T02:55:14.870Z,72.63
2022-12-04T02:56:23.404Z,62.17
2022-12-04T02:57:31.915Z,73.15
2022-12-04T02:58:43.349Z,69.47
2022-12-04T02:59:48.053Z,64.15
2022-12-04T03:00:51.978Z,60.25
2022-12-04T03:02:00.256Z,61.38
2022-12-04T03:03:07.869Z,61.65
2022-12-04T03:04:19.717Z,63.58
2022-12-04T03:05:28.866Z,65.05
2022-12-04T03:06:35.758Z,62.83
2022-12-04T03:07:48.062Z,57.65
2022-12-04T03:09:01.739Z,62.97
2022-12-04T03:10:08.658Z,61.00
2022-12-04T03:11:10.419Z,65.45
2022-12-04T03:12:27.136Z,64.07
2022-12-04T03:13:43.771Z,64.72
2022-12-04T03:15:02.060Z,68.05
2022-12-04T03:16:11.223Z,60.22
2022-12-04T03:17:21.629Z,67.95
2022-12-04T03:18:28.754Z,58.17
2022-12-04T03:19:52.858Z,66.20
2022-12-04T03:21:01.889Z,63.30
2022-12-04T03:22:08.119Z,75.50
2022-12-04T03:23:18.099Z,62.50
2022-12-04T03:24:22.411Z,68.82
2022-12-04T03:25:32.248Z,64.80
2022-12-04T03:26:47.839Z,66.82
2022-12-04T03:27:57.966Z,65.75
2022-12-04T03:29:05.192Z,60.50
2022-12-04T03:30:16.184Z,64.93
2022-12-04T03:31:25.018Z,63.35
2022-12-04T03:32:35.986Z,64.30
2022-12-04T03:33:47.129Z,64.45
2022-12-04T03:35:05.106Z,69.18
2022-12-04T03:36:21.134Z,59.13
2022-12-04T03:37:35.654Z,62.45
2022-12-04T03:38:44.092Z,62.35
2022-12-04T03:40:07.032Z,63.90
2022-12-04T03:41:33.735Z,60.50
2022-12-04T03:42:57.100Z,58.63
2022-12-04T03:44:19.009Z,62.72
2022-12-04T03:45:28.455Z,53.90
2022-12-04T03:46:39.703Z,64.10
2022-12-04T03:48:23.393Z,60.47
2022-12-04T03:49:55.437Z,62.53
2022-12-04T03:51:17.965Z,60.50
2022-12-04T03:52:34.878Z,62.20
2022-12-04T03:54:00.567Z,61.63
2022-12-04T03:55:08.658Z,58.22
2022-12-04T03:56:21.509Z,66.47
2022-12-04T03:57:29.158Z,58.90
2022-12-04T03:58:34.167Z,63.17
2022-12-04T03:59:42.545Z,56.10
2022-12-04T04:00:47.387Z,65.03
2022-12-04T04:01:51.177Z,60.17
2022-12-04T04:02:53.144Z,55.08
2022-12-04T04:03:57.851Z,61.42
2022-12-04T04:05:01.428Z,60.80
2022-12-04T04:06:12.501Z,67.25
2022-12-04T04:07:40.318Z,64.17
2022-12-04T04:08:47.135Z,61.08
2022-12-04T04:09:53.684Z,59.25
2022-12-04T04:11:25.088Z,63.67
2022-12-04T04:12:32.975Z,63.80
2022-12-04T04:14:09.296Z,57.90
2022-12-04T04:15:36.579Z,56.47
2022-12-04T04:17:01.690Z,56.58
2022-12-04T04:18:22.359Z,63.85
2022-12-04T04:19:46.829Z,61.22
2022-12-04T04:21:18.060Z,63.27
2022-12-04T04:22:39.522Z,59.75
2022-12-04T04:24:07.672Z,59.08
2022-12-04T04:25:16.293Z,59.88
2022-12-04T04:26:18.413Z,64.75
2022-12-04T04:27:20.122Z,55.42
2022-12-04T04:28:37.903Z,67.10
2022-12-04T04:29:40.012Z,63.95
2022-12-04T04:30:41.789Z,65.18
2022-12-04T04:31:58.622Z,59.63
2022-12-04T04:33:16.786Z,63.40
2022-12-04T04:34:42.221Z,62.33
2022-12-04T04:35:51.669Z,61.97
2022-12-04T04:37:05.472Z,59.08
2022-12-04T04:38:36.848Z,63.05
2022-12-04T04:39:50.471Z,62.60
2022-12-04T04:41:10.148Z,67.07
2022-12-04T04:42:24.917Z,66.82
2022-12-04T04:43:47.119Z,65.93
2022-12-04T04:45:01.304Z,64.75
2022-12-04T04:46:23.123Z,68.53
2022-12-04T04:48:02.187Z,64.13
2022-12-04T04:49:07.317Z,57.95
2022-12-04T04:50:11.379Z,69.68
2022-12-04T04:51:13.805Z,59.25
2022-12-04T04:52:19.880Z,60.85
2022-12-04T04:53:26.902Z,55.90
2022-12-04T04:54:30.972Z,69.82
2022-12-04T04:55:35.331Z,65.70
2022-12-04T04:56:42.985Z,67.70
2022-12-04T04:57:44.893Z,66.00
2022-12-04T04:58:46.691Z,67.50
2022-12-04T04:59:48.402Z,68.38
2022-12-04T05:01:10.498Z,68.82
2022-12-04T05:02:12.339Z,69.28
2022-12-04T05:03:14.312Z,69.32
2022-12-04T05:04:16.133Z,61.72
2022-12-04T05:05:18.170Z,61.65
2022-12-04T05:06:20.011Z,63.60
2022-12-04T05:07:21.777Z,68.15
2022-12-04T05:08:23.832Z,51.80
2022-12-04T05:09:26.382Z,65.85
2022-12-04T05:10:28.131Z,67.35
2022-12-04T05:11:29.945Z,70.28
2022-12-04T05:12:31.978Z,61.90
2022-12-04T05:13:33.697Z,66.45
2022-12-04T05:14:35.468Z,56.70
2022-12-04T05:15:37.242Z,70.63
2022-12-04T05:16:40.659Z,67.60
2022-12-04T05:17:42.582Z,67.85
2022-12-04T05:19:04.862Z,61.97
2022-12-04T05:20:07.178Z,59.20
2022-12-04T05:21:15.976Z,65.13
2022-12-04T05:22:18.231Z,63.03
2022-12-04T05:23:20.027Z,60.33
2022-12-04T05:24:21.740Z,65.35
2022-12-04T05:25:23.887Z,66.95
2022-12-04T05:26:25.934Z,70.53
2022-12-04T05:27:29.661Z,66.35
2022-12-04T05:28:31.663Z,63.85
2022-12-04T05:29:35.978Z,71.00
2022-12-04T05:30:38.266Z,64.25
2022-12-04T05:31:40.074Z,63.33
2022-12-04T05:32:41.913Z,62.90
2022-12-04T05:33:43.667Z,71.50
2022-12-04T05:34:51.658Z,70.25
2022-12-04T05:36:05.905Z,62.65
2022-12-04T05:37:07.659Z,69.25
2022-12-04T05:38:09.388Z,62.47
2022-12-04T05:39:11.117Z,68.45
2022-12-04T05:40:13.035Z,60.23
2022-12-04T05:41:14.774Z,62.30
2022-12-04T05:42:17.143Z,63.53
2022-12-04T05:43:18.995Z,63.55
2022-12-04T05:44:23.117Z,54.97
2022-12-04T05:45:24.822Z,62.53
2022-12-04T05:46:26.679Z,60.85
2022-12-04T05:47:28.439Z,61.63
2022-12-04T05:48:30.170Z,63.47
2022-12-04T05:49:33.845Z,64.63
2022-12-04T05:50:35.542Z,60.03
2022-12-04T05:51:37.331Z,66.18
2022-12-04T05:52:39.532Z,60.40
2022-12-04T05:53:41.235Z,68.05
2022-12-04T05:54:42.972Z,63.35
2022-12-04T05:55:44.693Z,65.80
2022-12-04T05:56:46.735Z,61.92
2022-12-04T05:57:48.500Z,58.67
2022-12-04T05:58:50.260Z,65.70
2022-12-04T05:59:52.050Z,66.13
2022-12-04T06:00:54.110Z,59.50
2022-12-04T06:01:55.913Z,59.50
2022-12-04T06:02:57.741Z,63.00
2022-12-04T06:03:59.568Z,58.33
2022-12-04T06:05:01.307Z,63.65
2022-12-04T06:06:04.493Z,61.00
2022-12-04T06:07:06.961Z,63.47
2022-12-04T06:08:08.986Z,64.05
2022-12-04T06:09:11.863Z,60.60
2022-12-04T06:10:13.600Z,57.95
2022-12-04T06:11:18.448Z,58.13
2022-12-04T06:12:20.193Z,58.45
2022-12-04T06:13:21.958Z,55.03
2022-12-04T06:14:23.808Z,65.78
2022-12-04T06:15:25.529Z,60.83
2022-12-04T06:16:30.784Z,66.20
2022-12-04T06:17:32.556Z,59.13
2022-12-04T06:18:34.261Z,65.68
2022-12-04T06:19:36.006Z,55.63
2022-12-04T06:20:37.858Z,66.28
2022-12-04T06:21:41.611Z,61.17
2022-12-04T06:22:43.318Z,61.53
2022-12-04T06:23:45.103Z,58.38
2022-12-04T06:24:46.959Z,55.42
2022-12-04T06:25:48.692Z,61.85
2022-12-04T06:27:25.734Z,59.97
2022-12-04T06:28:12.599Z,60.78
2022-12-04T06:29:14.455Z,57.65
2022-12-04T06:30:16.196Z,53.60
2022-12-04T06:31:19.054Z,67.28
2022-12-04T06:32:22.011Z,62.70
2022-12-04T06:33:24.149Z,55.03
2022-12-04T06:34:25.844Z,58.90
2022-12-04T06:35:27.598Z,66.65
2022-12-04T06:36:29.320Z,64.43
2022-12-04T06:37:31.074Z,60.08
2022-12-04T06:38:33.404Z,57.78
2022-12-04T06:39:35.731Z,61.33
2022-12-04T06:40:40.369Z,63.15
2022-12-04T06:41:42.118Z,59.28
2022-12-04T06:42:43.831Z,59.03
2022-12-04T06:43:45.920Z,63.75
2022-12-04T06:44:48.826Z,63.58
2022-12-04T06:46:02.916Z,59.55
2022-12-04T06:47:05.332Z,64.32
2022-12-04T06:48:07.106Z,57.83
2022-12-04T06:49:10.529Z,65.97
2022-12-04T06:50:12.413Z,59.38
2022-12-04T06:51:19.737Z,65.03
2022-12-04T06:52:21.439Z,59.35
2022-12-04T06:53:23.180Z,63.23
2022-12-04T06:54:26.065Z,65.95
2022-12-04T06:55:27.834Z,62.65
2022-12-04T06:56:32.989Z,65.95
2022-12-04T06:57:34.749Z,65.90
2022-12-04T06:58:36.848Z,58.40
2022-12-04T06:59:38.858Z,58.13
2022-12-04T07:00:40.653Z,56.00
2022-12-04T07:01:42.537Z,65.63
2022-12-04T07:02:44.342Z,66.80
2022-12-04T07:03:51.314Z,64.93
2022-12-04T07:04:57.158Z,62.15
2022-12-04T07:05:59.087Z,64.13
2022-12-04T07:07:00.855Z,66.43
2022-12-04T07:08:02.673Z,66.60
2022-12-04T07:09:08.190Z,61.55
2022-12-04T07:10:10.317Z,62.53
2022-12-04T07:11:13.157Z,64.10
2022-12-04T07:12:15.344Z,68.10
2022-12-04T07:13:17.055Z,60.78
2022-12-04T07:14:18.817Z,57.83
2022-12-04T07:15:20.580Z,65.35
2022-12-04T07:16:24.687Z,62.15
2022-12-04T07:17:26.494Z,62.08
2022-12-04T07:18:29.426Z,61.22
2022-12-04T07:19:31.184Z,59.78
2022-12-04T07:20:32.945Z,60.13
2022-12-04T07:21:34.831Z,65.13
2022-12-04T07:22:36.576Z,63.53
2022-12-04T07:23:38.630Z,65.93
2022-12-04T07:24:40.398Z,62.73
2022-12-04T07:25:42.085Z,68.15
2022-12-04T07:26:44.041Z,56.97
2022-12-04T07:27:46.369Z,61.97
2022-12-04T07:28:48.392Z,61.08
2022-12-04T07:29:53.119Z,63.90
2022-12-04T07:30:55.014Z,63.60
2022-12-04T07:31:56.859Z,58.75
2022-12-04T07:32:58.658Z,64.72
2022-12-04T07:34:00.508Z,70.43
2022-12-04T07:35:02.551Z,59.33
2022-12-04T07:36:06.855Z,59.08
2022-12-04T07:37:08.549Z,63.22
2022-12-04T07:38:10.262Z,69.72
2022-12-04T07:39:11.992Z,63.95
2022-12-04T07:40:14.282Z,62.10
2022-12-04T07:41:17.232Z,65.53
2022-12-04T07:42:24.075Z,71.18
2022-12-04T07:43:27.174Z,62.30
2022-12-04T07:44:31.749Z,63.30
2022-12-04T07:45:33.518Z,65.20
2022-12-04T07:46:35.361Z,64.03
2022-12-04T07:47:37.255Z,63.10
2022-12-04T07:48:39.042Z,61.40
2022-12-04T07:49:40.781Z,68.55
2022-12-04T07:50:42.516Z,60.88
2022-12-04T07:51:44.274Z,66.55
2022-12-04T07:52:46.052Z,66.50
2022-12-04T07:53:48.996Z,68.13
2022-12-04T07:54:50.691Z,66.10
2022-12-04T07:55:53.089Z,64.17
2022-12-04T07:56:54.965Z,72.82
2022-12-04T07:57:56.687Z,64.45
2022-12-04T07:59:00.031Z,90.40
2022-12-04T08:00:01.845Z,97.28
2022-12-04T08:01:11.244Z,93.80
2022-12-04T08:02:13.992Z,100.93
2022-12-04T08:03:15.730Z,88.03
2022-12-04T08:04:17.509Z,94.50
2022-12-04T08:05:19.460Z,91.05
2022-12-04T08:06:22.969Z,87.23
2022-12-04T08:07:24.709Z,94.90
2022-12-04T08:08:26.437Z,80.75
2022-12-04T08:09:28.192Z,88.32
2022-12-04T08:10:29.902Z,85.82
2022-12-04T08:11:32.025Z,85.75
2022-12-04T08:12:33.762Z,75.00
2022-12-04T08:13:35.906Z,71.30
2022-12-04T08:14:37.784Z,79.55
2022-12-04T08:15:39.520Z,81.55
2022-12-04T08:16:41.265Z,73.87
2022-12-04T08:17:43.063Z,69.82
2022-12-04T08:18:48.416Z,72.38
2022-12-04T08:19:50.326Z,62.35
2022-12-04T08:20:52.043Z,66.53
2022-12-04T08:21:56.654Z,58.72
2022-12-04T08:22:58.437Z,67.22
2022-12-04T08:24:00.755Z,64.78
2022-12-04T08:25:02.567Z,66.88
2022-12-04T08:26:05.236Z,65.95
2022-12-04T08:27:07.123Z,67.40
2022-12-04T08:28:08.990Z,60.55
2022-12-04T08:29:11.316Z,69.20
2022-12-04T08:30:13.609Z,68.53
2022-12-04T08:31:18.929Z,67.00
2022-12-04T08:32:20.789Z,69.18
2022-12-04T08:33:22.646Z,63.85
2022-12-04T08:34:24.813Z,61.45
2022-12-04T08:35:26.564Z,60.28
2022-12-04T08:36:28.941Z,61.67
2022-12-04T08:37:30.766Z,64.97
2022-12-04T08:38:32.494Z,64.78
2022-12-04T08:39:34.191Z,58.33
2022-12-04T08:40:35.983Z,58.50
2022-12-04T08:41:37.745Z,64.78
2022-12-04T08:42:39.501Z,66.55
2022-12-04T08:43:41.621Z,65.40
2022-12-04T08:44:43.338Z,61.95
2022-12-04T08:45:45.210Z,60.60
2022-12-04T08:46:47.056Z,58.40
2022-12-04T08:47:52.436Z,64.57
2022-12-04T08:48:55.165Z,59.10
2022-12-04T08:49:57.221Z,58.08
2022-12-04T08:50:59.806Z,63.65
2022-12-04T08:52:01.535Z,73.88
2022-12-04T08:53:03.297Z,64.38
2022-12-04T08:54:07.753Z,67.13
2022-12-04T08:55:10.151Z,66.05
2022-12-04T08:56:11.923Z,65.10
2022-12-04T08:57:13.678Z,70.82
2022-12-04T08:58:16.055Z,63.60
2022-12-04T08:59:17.784Z,68.80
2022-12-04T09:00:20.442Z,60.17
2022-12-04T09:01:22.545Z,69.57
2022-12-04T09:02:24.375Z,61.25
2022-12-04T09:03:30.697Z,62.03
2022-12-04T09:04:34.524Z,62.08
2022-12-04T09:05:36.307Z,58.10
2022-12-04T09:06:38.229Z,68.10
2022-12-04T09:07:40.100Z,66.53
2022-12-04T09:08:43.048Z,58.50
2022-12-04T09:09:48.180Z,58.80
2022-12-04T09:10:50.288Z,62.88
2022-12-04T09:11:52.101Z,61.10
2022-12-04T09:12:53.822Z,67.90
2022-12-04T09:13:56.232Z,69.05
2022-12-04T09:14:57.998Z,61.08
2022-12-04T09:16:00.210Z,58.72
2022-12-04T09:17:02.104Z,68.40
2022-12-04T09:18:03.905Z,66.15
2022-12-04T09:19:05.694Z,63.47
2022-12-04T09:20:08.636Z,56.90
2022-12-04T09:21:12.487Z,59.55
2022-12-04T09:22:14.211Z,64.32
2022-12-04T09:23:15.976Z,66.85
2022-12-04T09:24:18.028Z,59.90
2022-12-04T09:25:19.777Z,58.67
2022-12-04T09:26:31.618Z,56.75
2022-12-04T09:27:37.511Z,59.85
2022-12-04T09:28:39.202Z,56.95
2022-12-04T09:29:40.936Z,59.83
2022-12-04T09:30:42.692Z,64.95
2022-12-04T09:31:44.553Z,66.85
2022-12-04T09:32:46.372Z,70.93
2022-12-04T09:33:48.218Z,68.15
2022-12-04T09:34:52.804Z,69.82
2022-12-04T09:35:54.842Z,59.65
2022-12-04T09:36:56.593Z,67.72
2022-12-04T09:37:59.245Z,60.60
2022-12-04T09:39:01.055Z,69.20
2022-12-04T09:40:04.871Z,72.80
2022-12-04T09:41:21.907Z,75.53
2022-12-04T09:42:51.476Z,58.13
2022-12-04T09:44:17.219Z,59.35
2022-12-04T09:45:22.641Z,59.00
2022-12-04T09:47:03.063Z,67.80
2022-12-04T09:48:05.209Z,63.58
2022-12-04T09:49:14.547Z,62.65
2022-12-04T09:50:53.527Z,64.55
2022-12-04T09:52:00.258Z,67.78
2022-12-04T09:53:27.431Z,61.70
2022-12-04T09:54:39.797Z,68.00
2022-12-04T09:55:44.827Z,63.15
2022-12-04T09:57:01.550Z,68.45
2022-12-04T09:58:06.969Z,69.05
2022-12-04T09:59:17.231Z,64.22
2022-12-04T10:00:20.371Z,71.80
2022-12-04T10:01:31.176Z,70.43
2022-12-04T10:02:41.511Z,58.05
2022-12-04T10:03:43.581Z,63.15
2022-12-04T10:04:45.488Z,58.83
2022-12-04T10:06:11.716Z,59.92
2022-12-04T10:07:19.279Z,62.63
2022-12-04T10:08:31.837Z,68.70
2022-12-04T10:09:46.666Z,60.08
2022-12-04T10:10:58.866Z,66.03
2022-12-04T10:12:36.577Z,66.78
2022-12-04T10:14:12.174Z,60.45
2022-12-04T10:15:36.729Z,64.63
2022-12-04T10:16:56.664Z,74.40
2022-12-04T10:18:12.687Z,67.87
2022-12-04T10:19:44.979Z,71.00
2022-12-04T10:21:11.415Z,62.28
2022-12-04T10:22:47.282Z,67.50
2022-12-04T10:24:17.046Z,70.22
2022-12-04T10:25:21.799Z,72.22
2022-12-04T10:26:28.732Z,71.80
2022-12-04T10:27:36.094Z,77.63
2022-12-04T10:28:42.919Z,75.68
2022-12-04T10:29:50.153Z,78.82
2022-12-04T10:30:55.306Z,80.20
2022-12-04T10:32:05.252Z,71.90
2022-12-04T10:33:23.731Z,76.80
2022-12-04T10:34:31.087Z,80.03
2022-12-04T10:35:35.350Z,73.65
2022-12-04T10:36:37.138Z,77.65
2022-12-04T10:37:41.333Z,79.05
2022-12-04T10:39:00.248Z,76.05
2022-12-04T10:40:21.406Z,74.43
2022-12-04T10:41:43.292Z,72.53
2022-12-04T10:42:57.253Z,74.57
2022-12-04T10:43:59.056Z,80.55
2022-12-04T10:45:00.939Z,78.22
2022-12-04T10:46:02.736Z,74.25
2022-12-04T10:47:06.271Z,79.18
2022-12-04T10:48:21.676Z,81.70
2022-12-04T10:49:29.322Z,82.82
2022-12-04T10:50:31.098Z,79.10
2022-12-04T10:51:41.150Z,76.90
2022-12-04T10:52:42.997Z,78.47
2022-12-04T10:53:46.206Z,80.50
2022-12-04T10:55:01.123Z,72.90
2022-12-04T10:56:14.858Z,75.38
2022-12-04T10:57:16.709Z,76.88
2022-12-04T10:58:20.492Z,80.90
2022-12-04T10:59:22.731Z,79.85
2022-12-04T11:00:33.917Z,78.35
2022-12-04T11:01:35.792Z,72.45
2022-12-04T11:02:39.322Z,78.18
2022-12-04T11:03:44.733Z,85.28
2022-12-04T11:05:15.479Z,77.37
2022-12-04T11:06:25.459Z,81.10
2022-12-04T11:07:30.672Z,79.68
2022-12-04T11:08:44.788Z,80.47
2022-12-04T11:10:00.135Z,81.25
2022-12-04T11:11:06.301Z,76.72
2022-12-04T11:12:18.206Z,76.68
2022-12-04T11:13:21.053Z,79.13
2022-12-04T11:14:23.417Z,80.53
2022-12-04T11:15:25.551Z,73.38
2022-12-04T11:16:38.586Z,87.13
2022-12-04T11:17:40.677Z,90.05
2022-12-04T11:18:50.455Z,88.07
2022-12-04T11:20:22.901Z,86.53
2022-12-04T11:21:30.799Z,81.30
2022-12-04T11:22:34.561Z,75.20
2022-12-04T11:23:48.741Z,79.93
2022-12-04T11:24:56.385Z,75.20
2022-12-04T11:26:05.166Z,76.45
2022-12-04T11:27:16.599Z,76.68
2022-12-04T11:28:40.700Z,73.10
2022-12-04T11:29:45.250Z,77.32
2022-12-04T11:30:52.949Z,71.22
2022-12-04T11:31:55.834Z,74.35
2022-12-04T11:32:58.176Z,76.40
2022-12-04T11:34:08.086Z,72.18
2022-12-04T11:35:20.930Z,75.43
2022-12-04T11:36:30.461Z,80.15
2022-12-04T11:37:34.517Z,70.10
2022-12-04T11:38:37.929Z,71.53
2022-12-04T11:39:41.937Z,70.93
2022-12-04T11:40:50.433Z,77.82
2022-12-04T11:42:02.301Z,75.88
2022-12-04T11:43:10.226Z,77.35
2022-12-04T11:44:49.370Z,77.32
2022-12-04T11:45:58.401Z,68.18
2022-12-04T11:47:02.628Z,70.82
2022-12-04T11:48:14.775Z,70.53
2022-12-04T11:49:24.810Z,74.63
2022-12-04T11:50:56.729Z,80.30
2022-12-04T11:52:43.587Z,75.43
2022-12-04T11:53:55.577Z,73.50
2022-12-04T11:55:02.426Z,85.85
2022-12-04T11:56:17.439Z,82.57
2022-12-04T11:57:43.987Z,82.15
2022-12-04T11:59:24.259Z,79.88
2022-12-04T12:00:27.525Z,76.20
2022-12-04T12:01:44.462Z,78.03
2022-12-04T12:02:58.621Z,80.55
2022-12-04T12:04:06.295Z,75.45
2022-12-04T12:05:42.084Z,80.07
2022-12-04T12:07:01.358Z,77.25
2022-12-04T12:08:20.267Z,73.65
2022-12-04T12:09:40.372Z,73.03
2022-12-04T12:11:06.178Z,78.85
2022-12-04T12:12:17.495Z,67.18
2022-12-04T12:13:34.248Z,77.07
2022-12-04T12:14:48.879Z,75.07
2022-12-04T12:16:16.933Z,84.68
2022-12-04T12:17:28.096Z,79.30
2022-12-04T12:18:38.867Z,85.33
2022-12-04T12:20:06.607Z,78.15
2022-12-04T12:21:20.294Z,75.88
2022-12-04T12:22:43.332Z,72.57
2022-12-04T12:24:09.684Z,80.45
2022-12-04T12:25:19.255Z,71.07
2022-12-04T12:26:21.276Z,76.35
2022-12-04T12:27:54.284Z,63.30
2022-12-04T12:29:23.734Z,75.32
2022-12-04T12:30:29.099Z,73.30
2022-12-04T12:31:57.798Z,70.70
2022-12-04T12:33:18.956Z,74.30
2022-12-04T12:34:47.530Z,72.03
2022-12-04T12:36:09.347Z,69.38
2022-12-04T12:37:28.202Z,74.65
2022-12-04T12:38:35.229Z,69.35
2022-12-04T12:39:47.931Z,74.65
2022-12-04T12:40:52.692Z,74.60
2022-12-04T12:41:58.433Z,74.95
2022-12-04T12:43:20.915Z,75.95
2022-12-04T12:44:44.536Z,74.73
2022-12-04T12:45:55.397Z,68.07
2022-12-04T12:47:01.367Z,79.50
2022-12-04T12:48:19.097Z,81.22
2022-12-04T12:49:36.387Z,73.20
2022-12-04T12:51:14.764Z,73.03
2022-12-04T12:52:57.166Z,75.38
2022-12-04T12:54:20.907Z,72.80
2022-12-04T12:55:27.102Z,77.97
2022-12-04T12:56:40.510Z,76.45
2022-12-04T12:57:49.994Z,78.27
2022-12-04T12:58:57.497Z,69.18
2022-12-04T13:00:13.669Z,78.20
2022-12-04T13:01:19.687Z,78.32
2022-12-04T13:02:34.422Z,78.88
2022-12-04T13:04:03.646Z,66.93
2022-12-04T13:05:11.961Z,71.70
2022-12-04T13:06:19.157Z,80.03
2022-12-04T13:07:53.066Z,74.35
2022-12-04T13:09:08.140Z,72.95
2022-12-04T13:10:18.745Z,65.60
2022-12-04T13:11:23.556Z,72.88
2022-12-04T13:12:26.914Z,64.68
2022-12-04T13:13:33.007Z,75.60
2022-12-04T13:14:34.778Z,70.15
2022-12-04T13:15:49.306Z,69.72
2022-12-04T13:17:10.256Z,73.57
2022-12-04T13:18:24.739Z,77.25
2022-12-04T13:19:28.466Z,67.72
2022-12-04T13:20:37.318Z,69.97
2022-12-04T13:21:47.616Z,66.37
2022-12-04T13:23:14.129Z,63.45
2022-12-04T13:24:30.954Z,69.70
2022-12-04T13:25:53.725Z,72.35
2022-12-04T13:27:06.849Z,76.80
2022-12-04T13:28:43.705Z,68.65
2022-12-04T13:30:04.899Z,67.70
2022-12-04T13:31:06.570Z,67.68
2022-12-04T13:32:40.153Z,67.75
2022-12-04T13:33:44.686Z,77.40
2022-12-04T13:35:18.004Z,79.83
2022-12-04T13:36:29.886Z,80.25
2022-12-04T13:37:43.562Z,81.72
2022-12-04T13:39:09.566Z,79.78
2022-12-04T13:40:31.273Z,82.95
2022-12-04T13:41:38.245Z,76.20
2022-12-04T13:42:40.077Z,83.55
2022-12-04T13:43:41.751Z,79.43
2022-12-04T13:44:43.767Z,92.35
2022-12-04T13:45:47.088Z,80.13
2022-12-04T13:46:58.033Z,87.60
2022-12-04T13:48:03.015Z,87.22
2022-12-04T13:49:46.033Z,80.88
2022-12-04T13:50:47.806Z,86.97
2022-12-04T13:51:49.951Z,74.35
2022-12-04T13:52:53.532Z,74.72
2022-12-04T13:54:19.753Z,79.07
2022-12-04T13:55:40.478Z,78.50
2022-12-04T13:56:45.022Z,76.72
2022-12-04T13:58:13.030Z,70.00
2022-12-04T13:59:30.962Z,69.97
2022-12-04T14:00:36.784Z,65.18
2022-12-04T14:01:41.711Z,78.45
2022-12-04T14:02:51.328Z,68.38
2022-12-04T14:03:59.505Z,72.38
2022-12-04T14:05:06.140Z,67.05
2022-12-04T14:06:47.196Z,65.75
2022-12-04T14:08:07.896Z,73.65
2022-12-04T14:09:21.335Z,95.35
2022-12-04T14:10:36.471Z,84.72
2022-12-04T14:11:46.670Z,84.43
2022-12-04T14:12:58.354Z,83.47
2022-12-04T14:14:05.055Z,72.88
2022-12-04T14:15:25.512Z,68.07
2022-12-04T14:16:27.319Z,69.25
2022-12-04T14:17:35.191Z,77.68
2022-12-04T14:18:38.048Z,82.40
2022-12-04T14:19:44.775Z,73.63
2022-12-04T14:20:58.968Z,77.75
2022-12-04T14:22:01.294Z,71.05
2022-12-04T14:23:20.006Z,64.23
2022-12-04T14:24:32.152Z,70.10
2022-12-04T14:25:39.828Z,70.72
2022-12-04T14:27:10.611Z,65.40
2022-12-04T14:28:38.701Z,69.28
2022-12-04T14:29:51.939Z,73.43
2022-12-04T14:31:08.895Z,63.53
2022-12-04T14:32:26.796Z,70.13
2022-12-04T14:33:30.796Z,65.40
2022-12-04T14:34:35.387Z,61.50
2022-12-04T14:36:04.648Z,74.20
2022-12-04T14:37:07.212Z,58.20
2022-12-04T14:38:20.230Z,61.17
2022-12-04T14:39:46.931Z,56.92
2022-12-04T14:40:51.827Z,55.45